PWSweather.com
Personal Weather Stations
Station Observations
KAZTUCSO57
Countryside Manor, Tucson, AZ 85742

Countryside ManorTucson, AZ 85742

Lat: 32.3692, Lon: -111.066

Elevation: 2307

Station Type: Davis VP Pro+ 6163

http://frogville.us

Latest ConditionsUpdated 3:00:01 PM MST Wednesday, Sep 28, 2016
Currently Today's Max Today's Min Today's Average
Temperature 83.6°F28.7°C 91.2°F32.9°C 62.9°F17.2°C 73.6°F23.1°C
Dew Point 67.3°F19.6°C 67.3°F19.6°C 56.0°F13.3°C 59.4°F15.2°C
Winds 1.2 mph ESE1.9 kmh ESE 4.6 mph S7.4 kmh S - 1.0 mph 1.6 kmh
Wind Gusts 2.3 mph3.7 kmh 10.4 mph16.7 kmh - -
Humidity 58% 90% 32% 66%
Pressure 29.85 in1010.8 mb 29.92 in1013.2 mb 29.84 in1010.5 mb -
Precipitation - 0.06 in1.5 mm - -
Hour Temp Dew Point Humidity Winds Wind Gusts Pressure Precip Precip Rate Daily Precip Total
03:00 PM 83.6°F28.7°C 67.3°F19.6°C 58% 1.2 mph ESE1.9 kmh ESE 2.3 mph3.7 kmh 29.85 in1010.8 mb - 0.00 in0.0 mm 0.06 in1.5 mm
02:50 PM 84.6°F29.2°C 61.5°F16.4°C 46% Calm Calm 2.3 mph3.7 kmh 29.86 in1011.2 mb - 0.00 in0.0 mm 0.06 in1.5 mm
02:40 PM 85.6°F29.8°C 63.6°F17.6°C 48% 1.2 mph ESE1.9 kmh ESE 2.3 mph3.7 kmh 29.86 in1011.2 mb - 0.00 in0.0 mm 0.06 in1.5 mm
02:30 PM 86.8°F30.4°C 64.2°F17.9°C 47% 3.5 mph W5.6 kmh W 3.5 mph5.6 kmh 29.85 in1010.8 mb - 0.00 in0.0 mm 0.06 in1.5 mm
02:20 PM 89.2°F31.8°C 58.0°F14.4°C 35% 1.2 mph SW1.9 kmh SW 3.5 mph5.6 kmh 29.86 in1011.2 mb - 0.00 in0.0 mm 0.06 in1.5 mm
02:10 PM 89.8°F32.1°C 56.0°F13.3°C 32% 3.5 mph SW5.6 kmh SW 3.5 mph5.6 kmh 29.85 in1010.8 mb - 0.00 in0.0 mm 0.06 in1.5 mm
02:00 PM 90.2°F32.3°C 57.2°F14.0°C 33% 1.2 mph S1.9 kmh S 3.5 mph5.6 kmh 29.85 in1010.8 mb - 0.00 in0.0 mm 0.06 in1.5 mm
01:50 PM 90.0°F32.2°C 56.2°F13.4°C 32% 1.2 mph E1.9 kmh E 3.5 mph5.6 kmh 29.85 in1010.8 mb - 0.00 in0.0 mm 0.06 in1.5 mm
01:40 PM 90.3°F32.4°C 56.4°F13.6°C 32% 1.2 mph SE1.9 kmh SE 3.5 mph5.6 kmh 29.85 in1010.8 mb - 0.00 in0.0 mm 0.06 in1.5 mm
01:30 PM 90.8°F32.7°C 56.9°F13.8°C 32% 2.3 mph SE3.7 kmh SE 4.6 mph7.4 kmh 29.86 in1011.2 mb - 0.00 in0.0 mm 0.06 in1.5 mm
01:20 PM 91.2°F32.9°C 57.2°F14.0°C 32% 4.6 mph SW7.4 kmh SW 4.6 mph7.4 kmh 29.86 in1011.2 mb - 0.00 in0.0 mm 0.06 in1.5 mm
01:10 PM 91.1°F32.8°C 57.1°F13.9°C 32% 2.3 mph SSE3.7 kmh SSE 4.6 mph7.4 kmh 29.86 in1011.2 mb - 0.00 in0.0 mm 0.06 in1.5 mm
01:00 PM 91.1°F32.8°C 58.0°F14.4°C 33% 2.3 mph SE3.7 kmh SE 3.5 mph5.6 kmh 29.86 in1011.2 mb - 0.00 in0.0 mm 0.06 in1.5 mm
12:50 PM 91.0°F32.8°C 57.9°F14.4°C 33% 3.5 mph SE5.6 kmh SE 3.5 mph5.6 kmh 29.86 in1011.2 mb - 0.00 in0.0 mm 0.06 in1.5 mm
12:40 PM 90.4°F32.4°C 58.2°F14.6°C 34% 2.3 mph E3.7 kmh E 3.5 mph5.6 kmh 29.87 in1011.5 mb - 0.00 in0.0 mm 0.06 in1.5 mm
12:30 PM 89.8°F32.1°C 57.7°F14.3°C 34% 3.5 mph ESE5.6 kmh ESE 6.9 mph11.1 kmh 29.87 in1011.5 mb - 0.00 in0.0 mm 0.06 in1.5 mm
12:20 PM 89.6°F32.0°C 57.5°F14.2°C 34% 2.3 mph E3.7 kmh E 8.1 mph13.0 kmh 29.87 in1011.5 mb - 0.00 in0.0 mm 0.06 in1.5 mm
12:10 PM 89.2°F31.8°C 57.2°F14.0°C 34% 1.2 mph E1.9 kmh E 2.3 mph3.7 kmh 29.88 in1011.9 mb - 0.00 in0.0 mm 0.06 in1.5 mm
12:00 PM 89.3°F31.8°C 58.1°F14.5°C 35% 2.3 mph S3.7 kmh S 5.8 mph9.3 kmh 29.88 in1011.9 mb - 0.01 in0.3 mm 0.06 in1.5 mm
11:50 AM 88.6°F31.4°C 57.5°F14.2°C 35% 4.6 mph S7.4 kmh S 8.1 mph13.0 kmh 29.88 in1011.9 mb - 0.00 in0.0 mm 0.05 in1.3 mm
11:40 AM 88.1°F31.2°C 57.8°F14.3°C 36% 4.6 mph S7.4 kmh S 10.4 mph16.7 kmh 29.88 in1011.9 mb - 0.00 in0.0 mm 0.05 in1.3 mm
11:30 AM 86.9°F30.5°C 58.9°F14.9°C 39% 2.3 mph S3.7 kmh S 3.5 mph5.6 kmh 29.89 in1012.2 mb - 0.00 in0.0 mm 0.05 in1.3 mm
11:20 AM 86.3°F30.2°C 58.4°F14.7°C 39% 2.3 mph ESE3.7 kmh ESE 8.1 mph13.0 kmh 29.89 in1012.2 mb - 0.00 in0.0 mm 0.05 in1.3 mm
11:10 AM 85.8°F29.9°C 58.0°F14.4°C 39% 2.3 mph ENE3.7 kmh ENE 3.5 mph5.6 kmh 29.89 in1012.2 mb - 0.00 in0.0 mm 0.05 in1.3 mm
11:00 AM 85.3°F29.6°C 58.3°F14.6°C 40% 3.5 mph ESE5.6 kmh ESE 6.9 mph11.1 kmh 29.89 in1012.2 mb - 0.00 in0.0 mm 0.05 in1.3 mm
10:50 AM 84.0°F28.9°C 58.5°F14.7°C 42% 2.3 mph SSW3.7 kmh SSW 3.5 mph5.6 kmh 29.90 in1012.5 mb - 0.00 in0.0 mm 0.05 in1.3 mm
10:40 AM 82.6°F28.1°C 57.9°F14.4°C 43% 2.3 mph ESE3.7 kmh ESE 3.5 mph5.6 kmh 29.90 in1012.5 mb - 0.00 in0.0 mm 0.05 in1.3 mm
10:30 AM 82.1°F27.8°C 59.2°F15.1°C 46% 2.3 mph SE3.7 kmh SE 5.8 mph9.3 kmh 29.90 in1012.5 mb - 0.00 in0.0 mm 0.05 in1.3 mm
10:20 AM 81.7°F27.6°C 59.5°F15.3°C 47% Calm Calm 3.5 mph5.6 kmh 29.90 in1012.5 mb - 0.00 in0.0 mm 0.05 in1.3 mm
10:10 AM 81.2°F27.3°C 59.6°F15.3°C 48% 2.3 mph SW3.7 kmh SW 3.5 mph5.6 kmh 29.91 in1012.9 mb - 0.00 in0.0 mm 0.05 in1.3 mm
10:00 AM 80.6°F27.0°C 60.2°F15.7°C 50% Calm Calm 1.2 mph1.9 kmh 29.91 in1012.9 mb - 0.00 in0.0 mm 0.05 in1.3 mm
09:50 AM 80.0°F26.7°C 60.8°F16.0°C 52% 1.2 mph E1.9 kmh E 1.2 mph1.9 kmh 29.91 in1012.9 mb - 0.00 in0.0 mm 0.05 in1.3 mm
09:40 AM 79.8°F26.6°C 61.1°F16.2°C 53% 1.2 mph NE1.9 kmh NE 3.5 mph5.6 kmh 29.91 in1012.9 mb - 0.00 in0.0 mm 0.05 in1.3 mm
09:30 AM 79.0°F26.1°C 61.0°F16.1°C 54% Calm Calm 2.3 mph3.7 kmh 29.91 in1012.9 mb - 0.00 in0.0 mm 0.05 in1.3 mm
09:20 AM 77.3°F25.2°C 61.4°F16.3°C 58% Calm Calm 2.3 mph3.7 kmh 29.91 in1012.9 mb - 0.00 in0.0 mm 0.05 in1.3 mm
09:10 AM 75.7°F24.3°C 61.3°F16.3°C 61% Calm Calm 1.2 mph1.9 kmh 29.91 in1012.9 mb - 0.00 in0.0 mm 0.05 in1.3 mm
09:00 AM 73.4°F23.0°C 61.8°F16.6°C 67% 1.2 mph NE1.9 kmh NE 3.5 mph5.6 kmh 29.91 in1012.9 mb - 0.00 in0.0 mm 0.05 in1.3 mm
08:50 AM 72.2°F22.3°C 61.5°F16.4°C 69% 1.2 mph NNE1.9 kmh NNE 2.3 mph3.7 kmh 29.91 in1012.9 mb - 0.00 in0.0 mm 0.05 in1.3 mm
08:40 AM 71.2°F21.8°C 61.3°F16.3°C 71% 1.2 mph NE1.9 kmh NE 2.3 mph3.7 kmh 29.92 in1013.2 mb - 0.00 in0.0 mm 0.05 in1.3 mm
08:30 AM 69.9°F21.1°C 60.9°F16.1°C 73% Calm Calm -- 29.91 in1012.9 mb - 0.00 in0.0 mm 0.05 in1.3 mm
08:20 AM 69.3°F20.7°C 61.0°F16.1°C 75% Calm Calm -- 29.91 in1012.9 mb - 0.00 in0.0 mm 0.05 in1.3 mm
08:10 AM 68.9°F20.5°C 60.3°F15.7°C 74% Calm Calm 1.2 mph1.9 kmh 29.91 in1012.9 mb - 0.00 in0.0 mm 0.05 in1.3 mm
08:00 AM 68.7°F20.4°C 60.1°F15.6°C 74% 1.2 mph NE1.9 kmh NE 2.3 mph3.7 kmh 29.90 in1012.5 mb - 0.01 in0.3 mm 0.05 in1.3 mm
07:50 AM 68.6°F20.3°C 60.0°F15.6°C 74% 1.2 mph NE1.9 kmh NE 2.3 mph3.7 kmh 29.90 in1012.5 mb - 0.00 in0.0 mm 0.04 in1.0 mm
07:40 AM 68.6°F20.3°C 59.6°F15.3°C 73% Calm Calm 3.5 mph5.6 kmh 29.90 in1012.5 mb - 0.00 in0.0 mm 0.04 in1.0 mm
07:30 AM 68.6°F20.3°C 59.6°F15.3°C 73% 1.2 mph NE1.9 kmh NE 3.5 mph5.6 kmh 29.89 in1012.2 mb - 0.00 in0.0 mm 0.04 in1.0 mm
07:20 AM 68.3°F20.2°C 59.7°F15.4°C 74% Calm Calm 2.3 mph3.7 kmh 29.89 in1012.2 mb - 0.00 in0.0 mm 0.04 in1.0 mm
07:10 AM 67.8°F19.9°C 59.6°F15.3°C 75% Calm Calm -- 29.89 in1012.2 mb - 0.00 in0.0 mm 0.04 in1.0 mm
07:00 AM 67.0°F19.4°C 59.2°F15.1°C 76% 1.2 mph NE1.9 kmh NE 3.5 mph5.6 kmh 29.89 in1012.2 mb - 0.00 in0.0 mm 0.04 in1.0 mm
06:50 AM 66.4°F19.1°C 59.0°F15.0°C 77% Calm Calm 1.2 mph1.9 kmh 29.89 in1012.2 mb - 0.00 in0.0 mm 0.04 in1.0 mm
06:40 AM 66.2°F19.0°C 58.7°F14.8°C 77% Calm Calm -- 29.89 in1012.2 mb - 0.01 in0.3 mm 0.04 in1.0 mm
06:30 AM 65.9°F18.8°C 58.8°F14.9°C 78% Calm Calm 2.3 mph3.7 kmh 29.89 in1012.2 mb - 0.00 in0.0 mm 0.03 in0.8 mm
06:20 AM 65.8°F18.8°C 58.7°F14.8°C 78% Calm Calm 1.2 mph1.9 kmh 29.88 in1011.9 mb - 0.00 in0.0 mm 0.03 in0.8 mm
06:10 AM 65.5°F18.6°C 58.5°F14.7°C 78% Calm Calm 1.2 mph1.9 kmh 29.88 in1011.9 mb - 0.00 in0.0 mm 0.03 in0.8 mm
06:00 AM 65.3°F18.5°C 58.3°F14.6°C 78% 1.2 mph NE1.9 kmh NE 2.3 mph3.7 kmh 29.87 in1011.5 mb - 0.00 in0.0 mm 0.03 in0.8 mm
05:50 AM 65.2°F18.4°C 58.5°F14.7°C 79% Calm Calm -- 29.87 in1011.5 mb - 0.00 in0.0 mm 0.03 in0.8 mm
05:40 AM 65.1°F18.4°C 58.4°F14.7°C 79% Calm Calm -- 29.87 in1011.5 mb - 0.00 in0.0 mm 0.03 in0.8 mm
05:30 AM 65.0°F18.3°C 58.3°F14.6°C 79% Calm Calm -- 29.86 in1011.2 mb - 0.01 in0.3 mm 0.03 in0.8 mm
05:20 AM 64.9°F18.3°C 58.6°F14.8°C 80% Calm Calm -- 29.86 in1011.2 mb - 0.00 in0.0 mm 0.02 in0.5 mm
05:10 AM 64.7°F18.2°C 58.4°F14.7°C 80% Calm Calm -- 29.86 in1011.2 mb - 0.00 in0.0 mm 0.02 in0.5 mm
05:00 AM 64.7°F18.2°C 58.7°F14.8°C 81% Calm Calm 1.2 mph1.9 kmh 29.86 in1011.2 mb - 0.00 in0.0 mm 0.02 in0.5 mm
04:50 AM 64.6°F18.1°C 59.0°F15.0°C 82% Calm Calm -- 29.86 in1011.2 mb - 0.00 in0.0 mm 0.02 in0.5 mm
04:40 AM 64.6°F18.1°C 59.0°F15.0°C 82% Calm Calm -- 29.86 in1011.2 mb - 0.00 in0.0 mm 0.02 in0.5 mm
04:30 AM 64.5°F18.1°C 58.5°F14.7°C 81% Calm Calm -- 29.86 in1011.2 mb - 0.00 in0.0 mm 0.02 in0.5 mm
04:20 AM 64.3°F17.9°C 58.7°F14.8°C 82% 1.2 mph NNE1.9 kmh NNE 1.2 mph1.9 kmh 29.86 in1011.2 mb - 0.00 in0.0 mm 0.02 in0.5 mm
04:10 AM 64.1°F17.8°C 58.5°F14.7°C 82% 1.2 mph NNE1.9 kmh NNE 2.3 mph3.7 kmh 29.86 in1011.2 mb - 0.00 in0.0 mm 0.02 in0.5 mm
04:00 AM 63.9°F17.7°C 58.3°F14.6°C 82% Calm Calm 1.2 mph1.9 kmh 29.86 in1011.2 mb - 0.00 in0.0 mm 0.02 in0.5 mm
03:50 AM 63.7°F17.6°C 58.4°F14.7°C 83% 1.2 mph NNE1.9 kmh NNE 3.5 mph5.6 kmh 29.86 in1011.2 mb - 0.00 in0.0 mm 0.02 in0.5 mm
03:40 AM 63.5°F17.5°C 58.9°F14.9°C 85% Calm Calm 2.3 mph3.7 kmh 29.85 in1010.8 mb - 0.00 in0.0 mm 0.02 in0.5 mm
03:30 AM 63.3°F17.4°C 59.0°F15.0°C 86% 1.2 mph NNE1.9 kmh NNE 2.3 mph3.7 kmh 29.85 in1010.8 mb - 0.00 in0.0 mm 0.02 in0.5 mm
03:20 AM 63.1°F17.3°C 58.8°F14.9°C 86% 1.2 mph NNE1.9 kmh NNE 2.3 mph3.7 kmh 29.85 in1010.8 mb - 0.00 in0.0 mm 0.02 in0.5 mm
03:10 AM 63.0°F17.2°C 59.1°F15.1°C 87% Calm Calm 1.2 mph1.9 kmh 29.85 in1010.8 mb - 0.00 in0.0 mm 0.02 in0.5 mm
03:00 AM 62.9°F17.2°C 59.3°F15.2°C 88% Calm Calm 2.3 mph3.7 kmh 29.85 in1010.8 mb - 0.01 in0.3 mm 0.02 in0.5 mm
02:50 AM 63.0°F17.2°C 59.4°F15.2°C 88% Calm Calm -- 29.85 in1010.8 mb - 0.00 in0.0 mm 0.01 in0.3 mm
02:40 AM 63.0°F17.2°C 59.7°F15.4°C 89% Calm Calm -- 29.85 in1010.8 mb - 0.00 in0.0 mm 0.01 in0.3 mm
02:30 AM 63.2°F17.3°C 59.9°F15.5°C 89% 1.2 mph NNE1.9 kmh NNE 2.3 mph3.7 kmh 29.85 in1010.8 mb - 0.00 in0.0 mm 0.01 in0.3 mm
02:20 AM 63.5°F17.5°C 60.6°F15.9°C 90% 1.2 mph NNE1.9 kmh NNE 2.3 mph3.7 kmh 29.85 in1010.8 mb - 0.00 in0.0 mm 0.01 in0.3 mm
02:10 AM 63.8°F17.7°C 60.8°F16.0°C 90% Calm Calm -- 29.85 in1010.8 mb - 0.00 in0.0 mm 0.01 in0.3 mm
02:00 AM 64.0°F17.8°C 61.0°F16.1°C 90% Calm Calm -- 29.85 in1010.8 mb - 0.00 in0.0 mm 0.01 in0.3 mm
01:50 AM 64.3°F17.9°C 61.0°F16.1°C 89% Calm Calm 2.3 mph3.7 kmh 29.85 in1010.8 mb - 0.00 in0.0 mm 0.01 in0.3 mm
01:40 AM 64.5°F18.1°C 61.2°F16.2°C 89% Calm Calm 1.2 mph1.9 kmh 29.85 in1010.8 mb - 0.00 in0.0 mm 0.01 in0.3 mm
01:30 AM 64.6°F18.1°C 61.3°F16.3°C 89% Calm Calm 1.2 mph1.9 kmh 29.85 in1010.8 mb - 0.00 in0.0 mm 0.01 in0.3 mm
01:20 AM 64.5°F18.1°C 61.2°F16.2°C 89% 2.3 mph N3.7 kmh N 3.5 mph5.6 kmh 29.86 in1011.2 mb - 0.00 in0.0 mm 0.01 in0.3 mm
01:10 AM 64.0°F17.8°C 60.4°F15.8°C 88% 1.2 mph SW1.9 kmh SW 1.2 mph1.9 kmh 29.88 in1011.9 mb - 0.00 in0.0 mm 0.01 in0.3 mm
01:00 AM 63.7°F17.6°C 60.1°F15.6°C 88% Calm Calm -- 29.85 in1010.8 mb - 0.01 in0.3 mm 0.01 in0.3 mm
12:50 AM 63.6°F17.6°C 60.0°F15.6°C 88% Calm Calm 1.2 mph1.9 kmh 29.84 in1010.5 mb - 0.00 in0.0 mm 0.00 in0.0 mm
12:40 AM 63.6°F17.6°C 59.7°F15.4°C 87% Calm Calm -- 29.84 in1010.5 mb - 0.00 in0.0 mm 0.00 in0.0 mm
12:30 AM 63.6°F17.6°C 59.7°F15.4°C 87% Calm Calm -- 29.84 in1010.5 mb - 0.00 in0.0 mm 0.00 in0.0 mm
12:20 AM 63.6°F17.6°C 59.7°F15.4°C 87% Calm Calm -- 29.84 in1010.5 mb - 0.00 in0.0 mm 0.00 in0.0 mm
12:10 AM 63.7°F17.6°C 60.1°F15.6°C 88% Calm Calm 1.2 mph1.9 kmh 29.84 in1010.5 mb - 0.00 in0.0 mm 0.00 in0.0 mm
12:00 AM 63.8°F17.7°C 60.2°F15.7°C 88% Calm Calm 2.3 mph3.7 kmh 29.84 in1010.5 mb - 0.00 in0.0 mm 0.00 in0.0 mm